createdAt,value
2018-08-28T00:01:17.787Z,55.94
2018-08-28T00:03:46.045Z,56.14
2018-08-28T00:06:14.258Z,56.30
2018-08-28T00:08:42.461Z,56.76
2018-08-28T00:11:10.675Z,56.28
2018-08-28T00:13:38.880Z,56.50
2018-08-28T00:16:07.121Z,56.80
2018-08-28T00:18:35.327Z,56.38
2018-08-28T00:21:03.565Z,56.95
2018-08-28T00:23:31.798Z,57.08
2018-08-28T00:26:00.036Z,57.09
2018-08-28T00:28:28.252Z,57.58
2018-08-28T00:30:56.476Z,56.93
2018-08-28T00:33:24.678Z,56.81
2018-08-28T00:35:52.929Z,57.48
2018-08-28T00:38:21.128Z,56.86
2018-08-28T00:40:49.322Z,56.84
2018-08-28T00:43:17.556Z,56.91
2018-08-28T00:45:45.760Z,57.08
2018-08-28T00:48:13.989Z,57.47
2018-08-28T00:50:42.212Z,57.88
2018-08-28T00:53:10.440Z,57.14
2018-08-28T00:55:38.674Z,57.57
2018-08-28T00:58:06.896Z,57.88
2018-08-28T01:00:35.113Z,57.51
2018-08-28T01:03:04.248Z,57.23
2018-08-28T01:05:32.513Z,57.77
2018-08-28T01:08:00.767Z,57.69
2018-08-28T01:10:29.049Z,57.29
2018-08-28T01:12:57.325Z,57.17
2018-08-28T01:15:25.578Z,57.99
2018-08-28T01:17:53.857Z,57.33
2018-08-28T01:20:22.097Z,57.45
2018-08-28T01:22:50.469Z,57.38
2018-08-28T01:25:18.737Z,57.84
2018-08-28T01:27:47.019Z,57.97
2018-08-28T01:30:19.674Z,58.06
2018-08-28T01:32:47.969Z,58.55
2018-08-28T01:35:16.238Z,58.40
2018-08-28T01:37:44.526Z,57.76
2018-08-28T01:40:12.773Z,58.29
2018-08-28T01:42:41.055Z,58.39
2018-08-28T01:45:09.292Z,58.29
2018-08-28T01:47:37.565Z,57.95
2018-08-28T01:50:05.992Z,58.35
2018-08-28T01:52:34.286Z,58.59
2018-08-28T01:55:02.529Z,57.88
2018-08-28T01:57:30.788Z,57.39
2018-08-28T01:59:59.085Z,57.32
2018-08-28T02:02:27.299Z,57.52
2018-08-28T02:04:55.536Z,57.97
2018-08-28T02:07:23.745Z,57.13
2018-08-28T02:09:51.963Z,57.15
2018-08-28T02:12:20.192Z,57.37
2018-08-28T02:14:48.400Z,56.93
2018-08-28T02:17:16.708Z,57.28
2018-08-28T02:19:44.953Z,57.09
2018-08-28T02:22:13.163Z,57.81
2018-08-28T02:24:41.359Z,57.78
2018-08-28T02:27:09.585Z,57.28
2018-08-28T02:29:37.789Z,57.34
2018-08-28T02:32:06.088Z,58.07
2018-08-28T02:34:34.309Z,57.86
2018-08-28T02:37:02.512Z,58.26
2018-08-28T02:39:30.736Z,57.64
2018-08-28T02:41:58.940Z,57.42
2018-08-28T02:44:27.158Z,57.50
2018-08-28T02:46:55.360Z,57.13
2018-08-28T02:49:23.575Z,57.48
2018-08-28T02:51:51.836Z,57.06
2018-08-28T02:54:20.066Z,57.68
2018-08-28T02:56:48.303Z,56.90
2018-08-28T02:59:16.542Z,57.57
2018-08-28T03:01:44.760Z,57.13
2018-08-28T03:04:12.980Z,57.35
2018-08-28T03:06:41.204Z,57.53
2018-08-28T03:09:09.632Z,57.09
2018-08-28T03:11:37.894Z,57.31
2018-08-28T03:14:06.079Z,56.86
2018-08-28T03:16:34.297Z,57.27
2018-08-28T03:19:02.520Z,57.27
2018-08-28T03:21:30.740Z,57.51
2018-08-28T03:23:58.999Z,58.21
2018-08-28T03:26:27.196Z,58.11
2018-08-28T03:28:55.438Z,57.62
2018-08-28T03:31:23.641Z,57.97
2018-08-28T03:33:51.864Z,57.63
2018-08-28T03:36:20.081Z,58.05
2018-08-28T03:38:48.320Z,58.16
2018-08-28T03:41:16.539Z,57.71
2018-08-28T03:43:44.765Z,58.14
2018-08-28T03:46:12.980Z,57.74
2018-08-28T03:48:41.233Z,58.14
2018-08-28T03:51:09.977Z,58.38
2018-08-28T03:53:38.181Z,58.31
2018-08-28T03:56:06.826Z,57.93
2018-08-28T03:58:35.060Z,57.84
2018-08-28T04:01:03.476Z,57.93
2018-08-28T04:03:31.769Z,58.42
2018-08-28T04:05:59.935Z,58.37
2018-08-28T04:08:28.171Z,58.33
2018-08-28T04:10:56.371Z,58.42
2018-08-28T04:13:24.600Z,58.20
2018-08-28T04:15:52.811Z,58.97
2018-08-28T04:18:21.051Z,58.59
2018-08-28T04:20:49.269Z,58.13
2018-08-28T04:23:17.499Z,58.45
2018-08-28T04:25:45.699Z,59.01
2018-08-28T04:28:13.948Z,58.36
2018-08-28T04:30:42.256Z,58.98
2018-08-28T04:33:10.554Z,58.28
2018-08-28T04:35:38.866Z,58.33
2018-08-28T04:38:07.109Z,58.65
2018-08-28T04:40:35.393Z,58.23
2018-08-28T04:43:04.824Z,58.48
2018-08-28T04:45:33.045Z,58.52
2018-08-28T04:48:01.253Z,59.10
2018-08-28T04:50:29.521Z,58.57
2018-08-28T04:52:57.728Z,58.94
2018-08-28T04:55:25.940Z,58.92
2018-08-28T04:57:54.148Z,58.73
2018-08-28T05:00:22.396Z,58.70
2018-08-28T05:02:50.651Z,58.50
2018-08-28T05:05:18.899Z,58.65
2018-08-28T05:07:47.124Z,59.19
2018-08-28T05:10:15.372Z,59.23
2018-08-28T05:12:44.411Z,58.82
2018-08-28T05:15:13.719Z,58.88
2018-08-28T05:17:41.920Z,59.57
2018-08-28T05:20:10.160Z,59.83
2018-08-28T05:22:38.376Z,59.42
2018-08-28T05:25:06.700Z,59.72
2018-08-28T05:27:34.917Z,59.30
2018-08-28T05:30:03.183Z,60.29
2018-08-28T05:32:31.395Z,59.86
2018-08-28T05:34:59.652Z,59.67
2018-08-28T05:37:28.513Z,59.47
2018-08-28T05:39:56.752Z,58.86
2018-08-28T05:42:25.044Z,58.94
2018-08-28T05:44:53.532Z,58.31
2018-08-28T05:47:21.747Z,58.16
2018-08-28T05:49:49.989Z,58.48
2018-08-28T05:52:18.269Z,58.37
2018-08-28T05:54:46.591Z,59.01
2018-08-28T05:57:15.232Z,58.39
2018-08-28T05:59:43.999Z,58.46
2018-08-28T06:02:12.449Z,58.66
2018-08-28T06:04:41.748Z,59.03
2018-08-28T06:07:11.658Z,57.97
2018-08-28T06:09:41.450Z,57.92
2018-08-28T06:12:11.883Z,57.41
2018-08-28T06:14:41.308Z,57.36
2018-08-28T06:17:10.574Z,56.99
2018-08-28T06:19:40.637Z,56.66
2018-08-28T06:22:10.031Z,56.62
2018-08-28T06:24:39.296Z,56.75
2018-08-28T06:27:08.668Z,57.79
2018-08-28T06:29:38.413Z,58.10
2018-08-28T06:32:07.643Z,57.70
2018-08-28T06:34:37.127Z,57.31
2018-08-28T06:37:06.426Z,57.13
2018-08-28T06:39:36.204Z,56.20
2018-08-28T06:42:05.505Z,54.13
2018-08-28T06:44:34.838Z,53.88
2018-08-28T06:47:04.368Z,52.51
2018-08-28T06:49:33.564Z,52.75
2018-08-28T06:52:03.044Z,53.57
2018-08-28T06:54:32.301Z,54.15
2018-08-28T06:57:00.776Z,54.88
2018-08-28T06:59:28.985Z,54.69
2018-08-28T07:01:57.230Z,55.14
2018-08-28T07:04:25.453Z,54.25
2018-08-28T07:06:53.710Z,54.08
2018-08-28T07:09:21.938Z,54.17
2018-08-28T07:11:50.181Z,53.50
2018-08-28T07:14:18.440Z,54.58
2018-08-28T07:16:46.701Z,54.04
2018-08-28T07:19:14.956Z,53.86
2018-08-28T07:21:43.321Z,54.15
2018-08-28T07:24:11.569Z,54.55
2018-08-28T07:26:39.819Z,54.78
2018-08-28T07:29:08.029Z,54.17
2018-08-28T07:31:36.328Z,55.02
2018-08-28T07:34:04.501Z,55.46
2018-08-28T07:36:32.757Z,55.51
2018-08-28T07:39:00.992Z,55.06
2018-08-28T07:41:30.192Z,54.66
2018-08-28T07:43:58.416Z,54.26
2018-08-28T07:46:26.702Z,53.99
2018-08-28T07:48:54.936Z,54.13
2018-08-28T07:51:23.217Z,53.53
2018-08-28T07:53:51.532Z,54.25
2018-08-28T07:56:19.709Z,52.90
2018-08-28T07:58:47.941Z,53.04
2018-08-28T08:01:16.263Z,52.64
2018-08-28T08:03:44.496Z,52.51
2018-08-28T08:06:12.740Z,53.17
2018-08-28T08:08:40.967Z,53.34
2018-08-28T08:11:09.241Z,53.06
2018-08-28T08:13:37.708Z,52.72
2018-08-28T08:16:06.376Z,51.45
2018-08-28T08:18:34.585Z,51.39
2018-08-28T08:21:02.866Z,52.20
2018-08-28T08:23:31.105Z,51.21
2018-08-28T08:25:59.360Z,51.44
2018-08-28T08:28:27.623Z,51.40
2018-08-28T08:30:55.885Z,52.06
2018-08-28T08:33:24.136Z,50.79
2018-08-28T08:35:52.387Z,50.76
2018-08-28T08:38:20.917Z,50.37
2018-08-28T08:40:49.194Z,49.95
2018-08-28T08:43:17.462Z,50.01
2018-08-28T08:45:45.741Z,50.22
2018-08-28T08:48:13.989Z,50.68
2018-08-28T08:50:42.244Z,49.46
2018-08-28T08:53:10.527Z,49.28
2018-08-28T08:55:38.772Z,49.01
2018-08-28T08:58:08.041Z,49.24
2018-08-28T09:00:36.273Z,48.09
2018-08-28T09:03:04.749Z,47.90
2018-08-28T09:05:32.981Z,49.73
2018-08-28T09:08:01.236Z,48.44
2018-08-28T09:10:29.472Z,47.63
2018-08-28T09:12:57.745Z,48.39
2018-08-28T09:15:25.992Z,47.03
2018-08-28T09:17:54.723Z,47.28
2018-08-28T09:20:22.960Z,47.86
2018-08-28T09:22:51.248Z,47.05
2018-08-28T09:25:19.469Z,46.37
2018-08-28T09:27:47.767Z,46.89
2018-08-28T09:30:16.016Z,46.38
2018-08-28T09:32:44.257Z,46.46
2018-08-28T09:35:12.480Z,47.93
2018-08-28T09:37:40.729Z,48.00
2018-08-28T09:40:08.959Z,47.61
2018-08-28T09:42:37.269Z,47.88
2018-08-28T09:45:05.520Z,46.05
2018-08-28T09:47:33.806Z,46.54
2018-08-28T09:50:02.161Z,47.21
2018-08-28T09:52:30.453Z,46.25
2018-08-28T09:54:58.856Z,46.83
2018-08-28T09:57:27.317Z,44.56
2018-08-28T09:59:55.513Z,45.16
2018-08-28T10:02:23.880Z,45.60
2018-08-28T10:04:52.161Z,44.99
2018-08-28T10:07:20.341Z,43.33
2018-08-28T10:09:48.788Z,43.54
2018-08-28T10:12:17.020Z,43.89
2018-08-28T10:14:45.228Z,42.70
2018-08-28T10:17:13.466Z,43.27
2018-08-28T10:19:41.776Z,44.37
2018-08-28T10:22:10.010Z,44.13
2018-08-28T10:24:38.427Z,44.69
2018-08-28T10:27:06.677Z,44.56
2018-08-28T10:29:34.898Z,44.58
2018-08-28T10:32:03.153Z,43.16
2018-08-28T10:34:31.761Z,42.32
2018-08-28T10:37:00.000Z,43.06
2018-08-28T10:39:28.218Z,41.80
2018-08-28T10:41:56.465Z,42.41
2018-08-28T10:44:24.676Z,40.86
2018-08-28T10:46:53.336Z,41.08
2018-08-28T10:49:21.520Z,41.56
2018-08-28T10:51:49.903Z,42.48
2018-08-28T10:54:18.142Z,40.75
2018-08-28T10:56:46.416Z,39.90
2018-08-28T10:59:14.684Z,39.50
2018-08-28T11:01:42.903Z,39.99
2018-08-28T11:04:11.133Z,40.24
2018-08-28T11:06:39.356Z,41.43
2018-08-28T11:09:07.620Z,39.85
2018-08-28T11:11:35.847Z,41.09
2018-08-28T11:14:04.095Z,40.34
2018-08-28T11:16:32.331Z,40.76
2018-08-28T11:19:00.884Z,41.15
2018-08-28T11:21:29.137Z,41.71
2018-08-28T11:23:57.404Z,41.86
2018-08-28T11:26:25.641Z,41.48
2018-08-28T11:28:53.896Z,40.18
2018-08-28T11:31:23.045Z,39.99
2018-08-28T11:33:51.237Z,39.54
2018-08-28T11:36:19.508Z,39.87
2018-08-28T11:38:47.753Z,40.22
2018-08-28T11:41:15.977Z,38.01
2018-08-28T11:43:44.208Z,38.55
2018-08-28T11:46:12.497Z,36.99
2018-08-28T11:48:40.760Z,38.97
2018-08-28T11:51:09.613Z,37.66
2018-08-28T11:53:37.960Z,37.35
2018-08-28T11:56:06.177Z,38.67
2018-08-28T11:58:34.416Z,38.01
2018-08-28T12:01:02.755Z,37.83
2018-08-28T12:03:32.087Z,38.19
2018-08-28T12:06:00.428Z,37.69
2018-08-28T12:08:28.803Z,36.90
2018-08-28T12:10:57.248Z,36.74
2018-08-28T12:13:25.525Z,36.85
2018-08-28T12:15:53.817Z,37.34
2018-08-28T12:18:22.040Z,36.62
2018-08-28T12:20:50.345Z,37.47
2018-08-28T12:23:18.570Z,37.82
2018-08-28T12:25:46.817Z,38.18
2018-08-28T12:28:15.061Z,38.79
2018-08-28T12:30:43.320Z,38.63
2018-08-28T12:33:11.552Z,40.35
2018-08-28T12:35:39.853Z,40.07
2018-08-28T12:38:08.348Z,40.92
2018-08-28T12:40:36.594Z,40.75
2018-08-28T12:43:04.836Z,40.28
2018-08-28T12:45:33.201Z,40.51
2018-08-28T12:48:01.518Z,40.39
2018-08-28T12:50:29.820Z,40.88
2018-08-28T12:52:58.216Z,42.20
2018-08-28T12:55:26.565Z,43.10
2018-08-28T12:57:54.863Z,43.96
2018-08-28T13:00:23.145Z,42.96
2018-08-28T13:02:51.384Z,43.52
2018-08-28T13:05:19.777Z,42.41
2018-08-28T13:07:48.000Z,42.13
2018-08-28T13:10:16.381Z,42.15
2018-08-28T13:12:44.640Z,43.27
2018-08-28T13:15:12.911Z,42.17
2018-08-28T13:17:41.113Z,42.14
2018-08-28T13:20:09.458Z,41.15
2018-08-28T13:22:37.654Z,41.04
2018-08-28T13:25:06.592Z,41.15
2018-08-28T13:27:34.792Z,41.09
2018-08-28T13:30:03.021Z,39.86
2018-08-28T13:32:32.061Z,40.07
2018-08-28T13:35:00.709Z,40.38
2018-08-28T13:37:29.292Z,40.66
2018-08-28T13:39:57.728Z,40.58
2018-08-28T13:42:26.340Z,40.68
2018-08-28T13:44:54.997Z,40.17
2018-08-28T13:47:24.129Z,40.03
2018-08-28T13:49:52.593Z,39.87
2018-08-28T13:52:21.881Z,40.32
2018-08-28T13:54:50.475Z,40.67
2018-08-28T13:57:18.829Z,40.97
2018-08-28T13:59:47.404Z,40.74
2018-08-28T14:02:17.204Z,40.36
2018-08-28T14:04:49.106Z,40.44
2018-08-28T14:07:17.563Z,39.88
2018-08-28T14:09:46.566Z,41.14
2018-08-28T14:12:15.175Z,40.57
2018-08-28T14:14:43.488Z,40.11
2018-08-28T14:17:12.100Z,40.32
2018-08-28T14:19:40.481Z,40.37
2018-08-28T14:22:09.273Z,39.82
2018-08-28T14:24:37.724Z,39.49
2018-08-28T14:27:07.065Z,39.45
2018-08-28T14:29:35.437Z,39.93
2018-08-28T14:32:04.805Z,39.28
2018-08-28T14:34:33.110Z,39.80
2018-08-28T14:37:01.478Z,39.24
2018-08-28T14:39:29.804Z,39.11
2018-08-28T14:41:58.887Z,39.26
2018-08-28T14:44:27.291Z,39.17
2018-08-28T14:46:57.018Z,38.74
2018-08-28T14:49:25.399Z,38.57
2018-08-28T14:51:54.877Z,37.90
2018-08-28T14:54:23.212Z,37.43
2018-08-28T14:56:51.565Z,38.45
2018-08-28T14:59:19.871Z,38.35
2018-08-28T15:01:48.220Z,39.74
2018-08-28T15:04:16.539Z,39.04
2018-08-28T15:06:44.860Z,38.66
2018-08-28T15:09:13.240Z,39.22
2018-08-28T15:11:43.471Z,39.32
2018-08-28T15:14:12.550Z,38.94
2018-08-28T15:16:40.964Z,38.82
2018-08-28T15:19:09.921Z,38.75
2018-08-28T15:21:38.392Z,37.86
2018-08-28T15:24:06.678Z,37.92
2018-08-28T15:26:34.934Z,37.80
2018-08-28T15:29:03.257Z,37.82
2018-08-28T15:31:31.528Z,38.84
2018-08-28T15:34:00.882Z,38.03
2018-08-28T15:36:29.176Z,37.93
2018-08-28T15:38:57.471Z,38.49
2018-08-28T15:41:25.790Z,38.00
2018-08-28T15:43:54.039Z,37.80
2018-08-28T15:46:22.296Z,38.15
2018-08-28T15:48:50.507Z,38.72
2018-08-28T15:51:18.784Z,37.98
2018-08-28T15:53:47.584Z,39.01
2018-08-28T15:56:15.885Z,37.84
2018-08-28T15:58:44.394Z,38.20
2018-08-28T16:01:12.951Z,38.49
2018-08-28T16:03:41.644Z,37.31
2018-08-28T16:06:09.869Z,38.26
2018-08-28T16:08:38.296Z,38.16
2018-08-28T16:11:06.941Z,38.79
2018-08-28T16:13:35.540Z,37.76
2018-08-28T16:16:03.919Z,37.84
2018-08-28T16:18:32.364Z,37.35
2018-08-28T16:21:00.823Z,37.61
2018-08-28T16:23:31.563Z,36.90
2018-08-28T16:26:00.229Z,37.24
2018-08-28T16:28:29.044Z,37.06
2018-08-28T16:30:57.546Z,38.11
2018-08-28T16:33:26.040Z,37.15
2018-08-28T16:35:55.172Z,38.58
2018-08-28T16:38:23.665Z,37.93
2018-08-28T16:40:52.053Z,38.38
2018-08-28T16:43:20.424Z,38.49
2018-08-28T16:45:48.696Z,38.78
2018-08-28T16:48:16.963Z,38.47
2018-08-28T16:50:45.196Z,38.08
2018-08-28T16:53:13.445Z,38.45
2018-08-28T16:55:41.803Z,38.73
2018-08-28T16:58:10.030Z,38.37
2018-08-28T17:00:38.308Z,37.84
2018-08-28T17:03:06.536Z,38.48
2018-08-28T17:05:34.915Z,39.21
2018-08-28T17:08:03.149Z,39.51
2018-08-28T17:10:31.376Z,38.35
2018-08-28T17:12:59.645Z,38.59
2018-08-28T17:15:28.553Z,39.02
2018-08-28T17:17:57.341Z,39.21
2018-08-28T17:20:25.583Z,39.20
2018-08-28T17:22:53.884Z,38.88
2018-08-28T17:25:22.117Z,38.54
2018-08-28T17:27:50.858Z,39.45
2018-08-28T17:30:19.288Z,39.28
2018-08-28T17:32:47.860Z,39.51
2018-08-28T17:35:16.919Z,39.55
2018-08-28T17:37:45.344Z,39.35
2018-08-28T17:40:13.881Z,39.39
2018-08-28T17:42:42.793Z,39.63
2018-08-28T17:45:11.233Z,40.18
2018-08-28T17:47:39.650Z,40.34
2018-08-28T17:50:08.325Z,39.88
2018-08-28T17:52:36.945Z,40.04
2018-08-28T17:55:05.359Z,40.39
2018-08-28T17:57:33.906Z,40.32
2018-08-28T18:00:02.225Z,39.89
2018-08-28T18:02:30.784Z,40.08
2018-08-28T18:04:59.318Z,40.57
2018-08-28T18:07:27.892Z,39.95
2018-08-28T18:09:56.392Z,40.04
2018-08-28T18:12:25.004Z,40.21
2018-08-28T18:14:56.385Z,41.30
2018-08-28T18:17:24.682Z,41.02
2018-08-28T18:19:52.992Z,40.82
2018-08-28T18:22:21.335Z,40.75
2018-08-28T18:24:49.529Z,41.27
2018-08-28T18:27:17.769Z,41.58
2018-08-28T18:29:46.075Z,41.44
2018-08-28T18:32:14.366Z,41.10
2018-08-28T18:34:42.688Z,41.63
2018-08-28T18:37:10.998Z,41.59
2018-08-28T18:39:39.280Z,41.88
2018-08-28T18:42:07.576Z,41.58
2018-08-28T18:44:35.799Z,42.42
2018-08-28T18:47:04.180Z,41.84
2018-08-28T18:49:32.341Z,41.93
2018-08-28T18:52:00.644Z,42.31
2018-08-28T18:54:28.863Z,42.18
2018-08-28T18:56:57.112Z,42.62
2018-08-28T18:59:25.346Z,42.83
2018-08-28T19:01:54.616Z,42.34
2018-08-28T19:04:22.811Z,43.37
2018-08-28T19:06:51.048Z,43.38
2018-08-28T19:09:19.304Z,43.74
2018-08-28T19:11:48.084Z,43.72
2018-08-28T19:14:16.444Z,44.30
2018-08-28T19:16:44.660Z,43.88
2018-08-28T19:19:12.952Z,44.09
2018-08-28T19:21:41.193Z,44.14
2018-08-28T19:24:09.446Z,43.56
2018-08-28T19:26:37.673Z,44.28
2018-08-28T19:29:05.984Z,43.75
2018-08-28T19:31:34.356Z,43.62
2018-08-28T19:34:02.638Z,44.21
2018-08-28T19:36:30.872Z,44.22
2018-08-28T19:38:59.149Z,44.11
2018-08-28T19:41:27.361Z,44.11
2018-08-28T19:43:55.694Z,44.03
2018-08-28T19:46:23.928Z,44.29
2018-08-28T19:48:52.305Z,44.58
2018-08-28T19:51:20.648Z,44.30
2018-08-28T19:53:48.920Z,44.36
2018-08-28T19:56:17.975Z,44.88
2018-08-28T19:58:46.240Z,44.96
2018-08-28T20:01:14.456Z,45.07
2018-08-28T20:03:42.687Z,44.94
2018-08-28T20:06:10.908Z,45.28
2018-08-28T20:08:39.154Z,45.77
2018-08-28T20:11:07.456Z,46.47
2018-08-28T20:13:35.688Z,46.73
2018-08-28T20:16:03.929Z,46.52
2018-08-28T20:18:32.173Z,47.11
2018-08-28T20:21:00.401Z,46.91
2018-08-28T20:23:28.728Z,46.30
2018-08-28T20:25:56.952Z,46.93
2018-08-28T20:28:25.212Z,47.08
2018-08-28T20:30:53.425Z,46.81
2018-08-28T20:33:21.704Z,47.32
2018-08-28T20:35:49.985Z,47.40
2018-08-28T20:38:18.268Z,47.94
2018-08-28T20:40:47.585Z,47.78
2018-08-28T20:43:15.948Z,47.92
2018-08-28T20:45:44.253Z,48.65
2018-08-28T20:48:12.504Z,49.37
2018-08-28T20:50:41.447Z,49.82
2018-08-28T20:53:09.772Z,49.69
2018-08-28T20:55:38.004Z,50.65
2018-08-28T20:58:07.035Z,51.58
2018-08-28T21:00:36.813Z,52.02
2018-08-28T21:03:05.637Z,52.79
2018-08-28T21:05:33.888Z,53.28
2018-08-28T21:08:02.490Z,52.65
2018-08-28T21:10:31.213Z,52.29
2018-08-28T21:12:59.843Z,51.77
2018-08-28T21:15:28.024Z,52.00
2018-08-28T21:17:56.253Z,52.64
2018-08-28T21:20:24.484Z,52.44
2018-08-28T21:22:52.725Z,52.89
2018-08-28T21:25:20.973Z,52.24
2018-08-28T21:27:49.189Z,52.98
2018-08-28T21:30:17.424Z,52.87
2018-08-28T21:32:45.748Z,52.74
2018-08-28T21:35:14.029Z,52.49
2018-08-28T21:37:42.252Z,52.28
2018-08-28T21:40:10.490Z,52.15
2018-08-28T21:42:38.720Z,52.75
2018-08-28T21:45:06.940Z,52.88
2018-08-28T21:47:35.143Z,52.57
2018-08-28T21:50:03.401Z,53.39
2018-08-28T21:52:31.632Z,52.75
2018-08-28T21:54:59.875Z,53.30
2018-08-28T21:57:28.079Z,53.84
2018-08-28T21:59:56.319Z,53.75
2018-08-28T22:02:24.537Z,53.68
2018-08-28T22:04:52.777Z,54.12
2018-08-28T22:07:26.320Z,54.21
2018-08-28T22:09:54.553Z,53.89
2018-08-28T22:12:22.820Z,54.04
2018-08-28T22:14:51.057Z,53.52
2018-08-28T22:17:19.252Z,53.69
2018-08-28T22:19:47.476Z,54.01
2018-08-28T22:22:15.697Z,53.46
2018-08-28T22:24:43.997Z,53.67
2018-08-28T22:27:12.234Z,53.26
2018-08-28T22:29:40.492Z,53.91
2018-08-28T22:32:08.699Z,53.03
2018-08-28T22:34:36.938Z,53.45
2018-08-28T22:37:05.609Z,53.08
2018-08-28T22:39:33.920Z,53.84
2018-08-28T22:42:02.157Z,53.53
2018-08-28T22:44:30.402Z,52.72
2018-08-28T22:46:58.604Z,53.00
2018-08-28T22:49:26.880Z,52.68
2018-08-28T22:51:55.128Z,53.26
2018-08-28T22:54:23.380Z,52.83
2018-08-28T22:56:51.592Z,53.46
2018-08-28T22:59:19.837Z,53.34
2018-08-28T23:01:48.035Z,53.43
2018-08-28T23:04:16.257Z,52.98
2018-08-28T23:06:44.487Z,53.41
2018-08-28T23:09:12.718Z,53.14
2018-08-28T23:11:40.956Z,52.81
2018-08-28T23:14:09.180Z,52.83
2018-08-28T23:16:37.392Z,53.27
2018-08-28T23:19:05.700Z,53.16
2018-08-28T23:21:33.936Z,53.41
2018-08-28T23:24:02.163Z,53.36
2018-08-28T23:26:30.375Z,54.22
2018-08-28T23:28:58.600Z,53.99
2018-08-28T23:31:26.813Z,54.03
2018-08-28T23:33:55.032Z,53.92
2018-08-28T23:36:23.247Z,53.92
2018-08-28T23:38:51.496Z,54.00
2018-08-28T23:41:19.851Z,53.99
2018-08-28T23:43:48.064Z,54.23
2018-08-28T23:46:16.304Z,54.65
2018-08-28T23:48:44.583Z,54.32
2018-08-28T23:51:12.835Z,54.80
2018-08-28T23:53:41.049Z,54.77
2018-08-28T23:56:09.271Z,54.95
2018-08-28T23:58:37.566Z,54.59
